This is the latest recevied weather packets stored in our database for station/object E20ZNR-1. If no packets are shown the sender has not sent any weather packets the latest 1 day(s).
| Time | Temp. | Humidity | Pressure | Rain* | Wind** | Luminosity | Snow |
|---|---|---|---|---|---|---|---|
| 1778037340 | 37.78° C | 59% | 1006 hPa | - | 0 m/s | 0 W/m² | - |
| 1778036414 | 36.11° C | 60% | 1007 hPa | - | 0 m/s | 0 W/m² | - |
| 1778035489 | 36.11° C | 62% | 1007 hPa | - | 0 m/s | 0 W/m² | - |
| 1778034565 | 36.11° C | 61% | 1007 hPa | - | 0 m/s | 0 W/m² | - |
| 1778033639 | 38.89° C | 54% | 1007 hPa | - | 0 m/s | 0 W/m² | - |
| 1778032714 | 38.33° C | 53% | 1007 hPa | - | 0 m/s | 0 W/m² | - |
| 1778031788 | 42.78° C | 39% | 1007 hPa | - | 0 m/s | 0 W/m² | - |
| 1778030862 | 45° C | 38% | 1006 hPa | - | 0 m/s | 0 W/m² | - |
| 1778029936 | 43.33° C | 41% | 1006 hPa | - | 0 m/s | 0 W/m² | - |
| 1778029012 | 42.78° C | 50% | 1006 hPa | - | 0 m/s | 0 W/m² | - |
| 1778028087 | 36.11° C | 60% | 1006 hPa | - | 0 m/s | 0 W/m² | - |
| 1778027162 | 35.56° C | 65% | 1006 hPa | - | 0 m/s | 0 W/m² | - |
| 1778026236 | 33.33° C | 76% | 1006 hPa | - | 0 m/s | 0 W/m² | - |
| 1778025312 | 30.56° C | 94% | 1006 hPa | - | 0 m/s | 0 W/m² | - |
| 1778024386 | 28.89° C | 99% | 1006 hPa | - | 0 m/s | 0 W/m² | - |
| 1778023462 | 27.78° C | 99% | 1006 hPa | - | 0 m/s | 0 W/m² | - |
| 1778022536 | 26.67° C | 99% | 1005 hPa | - | 0 m/s | 0 W/m² | - |
| 1778021610 | 26.11° C | 99% | 1005 hPa | - | 0 m/s | 0 W/m² | - |
| 1778020685 | 26.67° C | 99% | 1005 hPa | - | 0 m/s | 0 W/m² | - |
| 1778019759 | 26.67° C | 99% | 1005 hPa | - | 0 m/s | 0 W/m² | - |
| 1778018834 | 26.67° C | 99% | 1005 hPa | - | 0 m/s | 0 W/m² | - |
| 1778017909 | 26.67° C | 99% | 1005 hPa | - | 0 m/s | 0 W/m² | - |
| 1778016983 | 26.67° C | 99% | 1005 hPa | - | 0 m/s | 0 W/m² | - |
| 1778016065 | 26.67° C | 99% | 1005 hPa | - | 0 m/s | 0 W/m² | - |
| 1778015132 | 26.67° C | 99% | 1005 hPa | - | 0 m/s | 0 W/m² | - |
* Rain since midnight (hover to see other rain measurements)
** Current wind speed in m/s (hover to see current wind gust speed)